Airfield :
LOGIN :

Register | Disclaimer

   EN    FR    IT 

 










Legend :    VFR   Marginal VFR   IFR   Intensive IFR   Very Intensive IFR
Visi :
Ceiling :
>= 8 km
>= 3000ft
5 to 8 km
1000 to 3000 ft
1500m to 5 km
500 to 1000 ft
800 to 1500m
200 to 500 ft
< 800m
< 200 ft
Symbols :   Thunderstorms  Fog  Heavy snow  Heavy precipitations  Wind > 20 kt
SIGMETs :     Misc.  Thunderstorms  Icing  Turbulence  Mountain Waves  Volcanic Ashes






- Airport Elevation : 308 ft
- IATA code : MHG


EDFM - Mannheim-City

CURRENT METAR :
  • 281720Z 19005KT 150V220 CAVOK 14/07 Q1014

EXPIRED METARs :
  • 281650Z 20005KT 170V230 9999 FEW032 14/07 Q1014
  • 281620Z 20007KT 170V240 9999 FEW032 14/06 Q1014
  • 281550Z 21008KT 9999 SCT048 15/06 Q1014
  • 281520Z 21006KT 180V260 9999 SCT042 15/07 Q1013
  • 281450Z 20008KT 160V230 9999 SCT038 15/07 Q1013
  • 281420Z 21006KT 180V240 9999 FEW038 15/06 Q1013

TAF TAF EDFM
Valid from the 28 at 15:00 until the 28 at 21:00 UTC


281400Z 2815/2821 22010KT 9999 SCT035
PROB30
TEMPO 2815/2816 23015G25KT



MET'MAP, your aeronautical weather chart ! - Copyright ORBIFLY December 2007 - Disclaimer

ORBIFLY MET'MAP TEAM :

Programming & Development : Alexandra Zaïnal
Concept & original design : Baudouin d'Aumeries
Assistance for programming : Marc-Olivier Méhu
Technical & hardware support : Manuel Goepfert

Contact : metmap@orbifly.com




SOURCES & CREDITS :

   NOAA